createdAt,value
2022-11-22T00:01:51.187Z,50.20
2022-11-22T00:04:17.759Z,50.00
2022-11-22T00:06:44.222Z,50.10
2022-11-22T00:09:10.674Z,50.10
2022-11-22T00:11:37.140Z,50.00
2022-11-22T00:14:03.608Z,50.10
2022-11-22T00:16:30.072Z,50.20
2022-11-22T00:18:56.570Z,50.20
2022-11-22T00:21:23.039Z,50.30
2022-11-22T00:23:49.496Z,50.30
2022-11-22T00:26:15.971Z,50.40
2022-11-22T00:28:42.412Z,50.40
2022-11-22T00:31:11.742Z,50.40
2022-11-22T00:33:38.208Z,50.40
2022-11-22T00:36:04.652Z,50.40
2022-11-22T00:38:31.114Z,50.40
2022-11-22T00:40:57.595Z,50.40
2022-11-22T00:43:24.067Z,50.30
2022-11-22T00:45:50.615Z,50.30
2022-11-22T00:48:17.086Z,50.40
2022-11-22T00:50:43.563Z,50.30
2022-11-22T00:53:10.013Z,50.30
2022-11-22T00:55:36.503Z,50.30
2022-11-22T00:58:02.997Z,50.40
2022-11-22T01:00:29.472Z,50.40
2022-11-22T01:02:55.940Z,50.30
2022-11-22T01:05:22.404Z,50.30
2022-11-22T01:07:48.953Z,50.30
2022-11-22T01:10:15.475Z,50.10
2022-11-22T01:12:41.937Z,50.30
2022-11-22T01:15:08.406Z,50.40
2022-11-22T01:17:34.860Z,50.50
2022-11-22T01:20:01.317Z,50.50
2022-11-22T01:22:27.798Z,50.50
2022-11-22T01:24:54.265Z,50.60
2022-11-22T01:27:20.750Z,50.50
2022-11-22T01:29:47.213Z,50.40
2022-11-22T01:32:13.697Z,50.50
2022-11-22T01:34:40.177Z,50.40
2022-11-22T01:37:13.822Z,50.50
2022-11-22T01:39:40.296Z,50.40
2022-11-22T01:42:06.783Z,50.40
2022-11-22T01:44:33.220Z,50.50
2022-11-22T01:46:59.702Z,50.50
2022-11-22T01:49:26.210Z,50.40
2022-11-22T01:51:52.686Z,50.30
2022-11-22T01:54:19.156Z,50.40
2022-11-22T01:56:45.638Z,50.30
2022-11-22T01:59:12.090Z,50.40
2022-11-22T02:01:38.622Z,50.40
2022-11-22T02:04:05.159Z,50.30
2022-11-22T02:06:31.626Z,50.30
2022-11-22T02:08:58.523Z,50.30
2022-11-22T02:11:27.439Z,50.30
2022-11-22T02:13:57.548Z,50.40
2022-11-22T02:16:24.031Z,50.40
2022-11-22T02:18:50.517Z,50.50
2022-11-22T02:21:16.999Z,50.50
2022-11-22T02:23:43.489Z,50.50
2022-11-22T02:26:12.889Z,50.50
2022-11-22T02:28:39.371Z,50.40
2022-11-22T02:31:05.813Z,50.30
2022-11-22T02:33:32.286Z,50.50
2022-11-22T02:35:58.753Z,50.50
2022-11-22T02:38:25.235Z,50.50
2022-11-22T02:40:51.716Z,50.40
2022-11-22T02:43:18.174Z,50.50
2022-11-22T02:45:44.646Z,50.50
2022-11-22T02:48:11.134Z,50.40
2022-11-22T02:50:37.580Z,50.30
2022-11-22T02:53:04.064Z,50.40
2022-11-22T02:55:30.552Z,50.30
2022-11-22T03:00:37.447Z,50.50
2022-11-22T03:03:03.993Z,50.40
2022-11-22T03:05:30.452Z,50.40
2022-11-22T03:07:56.927Z,50.50
2022-11-22T03:10:23.390Z,50.50
2022-11-22T03:12:49.879Z,50.40
2022-11-22T03:15:16.351Z,50.40
2022-11-22T03:17:42.812Z,50.40
2022-11-22T03:20:09.276Z,50.50
2022-11-22T03:22:35.752Z,50.60
2022-11-22T03:25:02.226Z,50.60
2022-11-22T03:27:28.736Z,50.60
2022-11-22T03:29:55.286Z,50.50
2022-11-22T03:32:21.742Z,50.70
2022-11-22T03:34:48.204Z,50.60
2022-11-22T03:37:14.659Z,50.60
2022-11-22T03:39:41.128Z,50.50
2022-11-22T03:42:07.584Z,50.60
2022-11-22T03:44:34.064Z,50.50
2022-11-22T03:47:00.551Z,50.50
2022-11-22T03:49:27.144Z,50.60
2022-11-22T03:51:53.754Z,50.60
2022-11-22T03:54:20.219Z,50.60
2022-11-22T03:56:46.707Z,50.70
2022-11-22T03:59:13.174Z,50.70
2022-11-22T04:01:39.675Z,50.60
2022-11-22T04:04:06.185Z,50.70
2022-11-22T04:06:32.663Z,50.70
2022-11-22T04:08:59.175Z,50.70
2022-11-22T04:11:25.668Z,50.60
2022-11-22T04:13:52.151Z,50.80
2022-11-22T04:16:18.609Z,50.80
2022-11-22T04:18:45.075Z,50.80
2022-11-22T04:21:11.540Z,50.80
2022-11-22T04:23:38.022Z,50.80
2022-11-22T04:26:04.486Z,50.80
2022-11-22T04:29:01.468Z,50.90
2022-11-22T04:31:17.399Z,50.80
2022-11-22T04:33:43.876Z,50.90
2022-11-22T04:36:13.442Z,50.90
2022-11-22T04:38:40.118Z,50.80
2022-11-22T04:41:06.591Z,50.80
2022-11-22T04:43:33.057Z,50.80
2022-11-22T04:45:59.534Z,50.80
2022-11-22T04:48:25.994Z,50.80
2022-11-22T04:50:52.447Z,50.80
2022-11-22T04:53:18.907Z,50.70
2022-11-22T04:55:45.356Z,50.70
2022-11-22T04:58:11.816Z,50.80
2022-11-22T05:00:38.406Z,50.80
2022-11-22T05:03:04.897Z,50.80
2022-11-22T05:05:31.382Z,50.70
2022-11-22T05:07:57.847Z,50.80
2022-11-22T05:10:26.698Z,50.90
2022-11-22T05:12:53.755Z,50.90
2022-11-22T05:15:20.245Z,50.90
2022-11-22T05:17:46.701Z,51.00
2022-11-22T05:20:13.188Z,51.00
2022-11-22T05:22:39.621Z,51.00
2022-11-22T05:25:06.088Z,51.00
2022-11-22T05:27:32.538Z,51.00
2022-11-22T05:29:59.025Z,51.00
2022-11-22T05:32:25.488Z,50.90
2022-11-22T05:34:51.955Z,50.90
2022-11-22T05:37:18.429Z,51.00
2022-11-22T05:39:44.894Z,50.90
2022-11-22T05:42:12.357Z,50.80
2022-11-22T05:44:38.815Z,50.80
2022-11-22T05:47:05.279Z,50.80
2022-11-22T05:49:31.967Z,50.80
2022-11-22T05:51:58.600Z,50.90
2022-11-22T05:54:25.084Z,50.90
2022-11-22T05:56:51.559Z,50.90
2022-11-22T05:59:18.052Z,51.00
2022-11-22T06:01:44.544Z,50.90
2022-11-22T06:04:11.031Z,51.00
2022-11-22T06:06:37.495Z,51.10
2022-11-22T06:09:03.995Z,51.00
2022-11-22T06:11:30.475Z,51.00
2022-11-22T06:13:56.939Z,51.00
2022-11-22T06:16:23.467Z,51.00
2022-11-22T06:18:49.989Z,51.00
2022-11-22T06:21:16.448Z,51.00
2022-11-22T06:23:42.925Z,50.80
2022-11-22T06:26:09.394Z,50.90
2022-11-22T06:28:35.841Z,50.90
2022-11-22T06:31:02.331Z,50.90
2022-11-22T06:33:28.837Z,51.00
2022-11-22T06:35:55.326Z,51.00
2022-11-22T06:38:21.778Z,51.00
2022-11-22T06:40:48.247Z,51.00
2022-11-22T06:43:14.743Z,51.00
2022-11-22T06:45:41.229Z,51.00
2022-11-22T06:48:08.202Z,51.00
2022-11-22T06:50:34.682Z,51.00
2022-11-22T06:53:01.155Z,51.00
2022-11-22T06:55:49.686Z,51.00
2022-11-22T06:58:14.075Z,51.10
2022-11-22T07:00:40.508Z,51.00
2022-11-22T07:03:06.959Z,51.00
2022-11-22T07:05:33.415Z,51.00
2022-11-22T07:08:06.609Z,51.00
2022-11-22T07:10:37.077Z,51.00
2022-11-22T07:13:03.583Z,50.90
2022-11-22T07:15:30.062Z,51.00
2022-11-22T07:17:56.536Z,51.00
2022-11-22T07:20:25.139Z,51.10
2022-11-22T07:22:52.124Z,51.00
2022-11-22T07:25:18.599Z,50.90
2022-11-22T07:27:45.069Z,51.00
2022-11-22T07:30:11.527Z,51.10
2022-11-22T07:32:37.993Z,51.00
2022-11-22T07:35:04.432Z,50.90
2022-11-22T07:37:30.899Z,50.90
2022-11-22T07:39:57.346Z,50.80
2022-11-22T07:42:26.159Z,50.80
2022-11-22T07:44:52.963Z,50.80
2022-11-22T07:47:22.936Z,50.80
2022-11-22T07:49:49.717Z,50.80
2022-11-22T07:52:16.167Z,50.70
2022-11-22T07:54:42.638Z,51.00
2022-11-22T07:57:09.134Z,50.90
2022-11-22T07:59:35.619Z,50.80
2022-11-22T08:02:02.110Z,51.00
2022-11-22T08:04:28.703Z,50.90
2022-11-22T08:06:55.179Z,50.90
2022-11-22T08:09:21.633Z,51.00
2022-11-22T08:11:48.114Z,51.00
2022-11-22T08:14:16.914Z,51.00
2022-11-22T08:16:43.452Z,50.90
2022-11-22T08:19:09.920Z,50.80
2022-11-22T08:21:36.416Z,50.90
2022-11-22T08:24:02.895Z,50.90
2022-11-22T08:26:32.444Z,50.80
2022-11-22T08:29:00.009Z,50.90
2022-11-22T08:31:26.471Z,50.80
2022-11-22T08:33:52.950Z,50.90
2022-11-22T08:36:19.433Z,50.90
2022-11-22T08:38:45.892Z,51.00
2022-11-22T08:41:12.377Z,51.00
2022-11-22T08:43:38.871Z,50.90
2022-11-22T08:46:05.360Z,51.00
2022-11-22T08:48:31.841Z,51.00
2022-11-22T08:50:58.311Z,50.90
2022-11-22T08:53:24.768Z,50.90
2022-11-22T08:55:51.236Z,50.90
2022-11-22T08:58:17.707Z,50.90
2022-11-22T09:00:44.173Z,50.90
2022-11-22T09:03:10.670Z,50.80
2022-11-22T09:08:23.799Z,50.80
2022-11-22T09:10:50.437Z,50.80
2022-11-22T09:13:16.919Z,50.80
2022-11-22T09:15:49.374Z,50.70
2022-11-22T09:18:15.841Z,50.80
2022-11-22T09:20:42.324Z,50.80
2022-11-22T09:23:08.910Z,50.80
2022-11-22T09:25:35.394Z,50.80
2022-11-22T09:28:01.879Z,50.90
2022-11-22T09:30:28.360Z,50.80
2022-11-22T09:32:54.837Z,50.80
2022-11-22T09:35:21.307Z,50.80
2022-11-22T09:37:47.820Z,50.80
2022-11-22T09:40:14.261Z,50.90
2022-11-22T09:42:40.733Z,50.90
2022-11-22T09:45:07.229Z,50.90
2022-11-22T09:47:36.497Z,50.90
2022-11-22T09:50:02.988Z,50.80
2022-11-22T09:52:29.476Z,50.80
2022-11-22T09:54:55.968Z,50.80
2022-11-22T09:57:22.439Z,50.90
2022-11-22T09:59:48.903Z,50.80
2022-11-22T10:02:19.376Z,50.70
2022-11-22T10:04:49.621Z,50.70
2022-11-22T10:07:16.172Z,50.70
2022-11-22T10:09:42.674Z,50.70
2022-11-22T10:12:09.116Z,50.80
2022-11-22T10:14:35.555Z,50.80
2022-11-22T10:17:02.022Z,50.70
2022-11-22T10:19:29.085Z,50.60
2022-11-22T10:21:55.803Z,50.50
2022-11-22T10:24:22.294Z,50.60
2022-11-22T10:26:48.764Z,50.50
2022-11-22T10:29:15.228Z,50.60
2022-11-22T10:31:41.679Z,50.70
2022-11-22T10:34:08.170Z,50.70
2022-11-22T10:36:37.671Z,50.50
2022-11-22T10:39:04.132Z,50.70
2022-11-22T10:41:30.620Z,50.60
2022-11-22T10:43:57.091Z,50.60
2022-11-22T10:46:23.555Z,50.60
2022-11-22T10:48:50.009Z,50.70
2022-11-22T10:51:16.485Z,50.60
2022-11-22T10:53:43.428Z,50.70
2022-11-22T10:56:09.896Z,50.60
2022-11-22T10:58:36.447Z,50.50
2022-11-22T11:01:02.965Z,50.50
2022-11-22T11:03:29.543Z,50.60
2022-11-22T11:09:23.443Z,50.50
2022-11-22T11:11:28.990Z,50.50
2022-11-22T11:13:55.467Z,50.50
2022-11-22T11:16:21.919Z,50.50
2022-11-22T11:18:48.397Z,50.50
2022-11-22T11:21:14.880Z,50.50
2022-11-22T11:23:41.367Z,50.20
2022-11-22T11:26:08.381Z,50.50
2022-11-22T11:28:34.841Z,50.40
2022-11-22T11:31:01.307Z,50.50
2022-11-22T11:33:27.759Z,50.30
2022-11-22T11:35:54.239Z,50.50
2022-11-22T11:38:20.703Z,50.60
2022-11-22T11:40:47.277Z,50.50
2022-11-22T11:43:15.887Z,50.50
2022-11-22T11:45:42.351Z,50.40
2022-11-22T11:48:08.805Z,50.50
2022-11-22T11:50:35.265Z,50.50
2022-11-22T11:53:01.738Z,50.60
2022-11-22T11:55:28.200Z,50.40
2022-11-22T11:57:54.716Z,50.60
2022-11-22T12:00:21.203Z,50.70
2022-11-22T12:02:47.699Z,50.70
2022-11-22T12:05:14.190Z,50.50
2022-11-22T12:07:40.677Z,50.50
2022-11-22T12:10:07.205Z,50.50
2022-11-22T12:12:33.658Z,50.40
2022-11-22T12:15:14.818Z,50.40
2022-11-22T12:17:41.505Z,50.30
2022-11-22T12:20:07.946Z,50.50
2022-11-22T12:22:50.718Z,50.30
2022-11-22T12:25:31.901Z,50.20
2022-11-22T12:28:03.870Z,50.40
2022-11-22T12:30:30.363Z,50.30
2022-11-22T12:32:56.839Z,50.30
2022-11-22T12:35:23.443Z,50.30
2022-11-22T12:37:49.913Z,50.40
2022-11-22T12:40:16.395Z,50.50
2022-11-22T12:42:42.849Z,50.30
2022-11-22T12:45:09.308Z,50.40
2022-11-22T12:47:39.935Z,50.40
2022-11-22T12:50:06.408Z,50.20
2022-11-22T12:52:32.882Z,50.40
2022-11-22T12:54:59.330Z,50.30
2022-11-22T12:57:25.791Z,50.30
2022-11-22T12:59:52.267Z,50.10
2022-11-22T13:02:18.719Z,50.20
2022-11-22T13:04:45.205Z,50.20
2022-11-22T13:07:11.764Z,50.20
2022-11-22T13:09:38.298Z,50.30
2022-11-22T13:12:04.760Z,50.10
2022-11-22T13:14:31.362Z,50.10
2022-11-22T13:16:58.071Z,50.10
2022-11-22T13:19:24.528Z,50.20
2022-11-22T13:21:50.982Z,50.10
2022-11-22T13:24:17.464Z,50.20
2022-11-22T13:26:43.948Z,50.20
2022-11-22T13:29:10.415Z,50.10
2022-11-22T13:31:41.003Z,50.10
2022-11-22T13:34:07.693Z,50.10
2022-11-22T13:36:34.154Z,50.00
2022-11-22T13:39:00.633Z,50.30
2022-11-22T13:41:27.091Z,50.40
2022-11-22T13:43:53.629Z,50.30
2022-11-22T13:46:20.083Z,50.30
2022-11-22T13:48:46.539Z,50.20
2022-11-22T13:51:13.005Z,50.20
2022-11-22T13:53:44.139Z,50.20
2022-11-22T13:56:10.631Z,50.10
2022-11-22T13:58:37.170Z,50.20
2022-11-22T14:01:03.713Z,50.10
2022-11-22T14:03:30.323Z,50.20
2022-11-22T14:05:56.776Z,50.20
2022-11-22T14:08:23.257Z,50.20
2022-11-22T14:10:49.783Z,50.10
2022-11-22T14:13:16.244Z,50.10
2022-11-22T14:15:42.703Z,50.10
2022-11-22T14:18:09.163Z,50.00
2022-11-22T14:20:35.627Z,50.00
2022-11-22T14:23:02.073Z,50.00
2022-11-22T14:25:28.534Z,50.10
2022-11-22T14:27:55.094Z,49.90
2022-11-22T14:30:21.544Z,50.20
2022-11-22T14:32:48.002Z,50.20
2022-11-22T14:35:14.451Z,50.00
2022-11-22T14:37:40.927Z,50.20
2022-11-22T14:40:07.409Z,50.20
2022-11-22T14:42:33.892Z,50.10
2022-11-22T14:45:00.407Z,50.30
2022-11-22T14:47:26.869Z,50.20
2022-11-22T14:49:53.345Z,50.10
2022-11-22T14:52:19.825Z,50.10
2022-11-22T14:54:46.304Z,50.00
2022-11-22T14:57:12.775Z,50.10
2022-11-22T14:59:39.228Z,50.10
2022-11-22T15:02:05.786Z,50.10
2022-11-22T15:09:10.060Z,50.10
2022-11-22T15:09:17.453Z,50.10
2022-11-22T15:10:05.386Z,50.00
2022-11-22T15:12:31.996Z,50.30
2022-11-22T15:14:58.493Z,50.20
2022-11-22T15:59:22.335Z,50.20
2022-11-22T16:01:48.883Z,50.30
2022-11-22T16:04:16.398Z,50.20
2022-11-22T16:06:42.859Z,50.30
2022-11-22T16:09:09.309Z,50.30
2022-11-22T16:11:35.791Z,50.40
2022-11-22T16:14:02.305Z,50.30
2022-11-22T16:16:28.788Z,50.40
2022-11-22T16:18:55.288Z,50.40
2022-11-22T16:21:24.518Z,50.40
2022-11-22T16:23:51.037Z,50.40
2022-11-22T16:26:17.507Z,50.40
2022-11-22T16:28:43.976Z,50.30
2022-11-22T16:31:10.441Z,50.40
2022-11-22T16:33:36.905Z,50.40
2022-11-22T16:36:03.391Z,50.30
2022-11-22T16:38:29.868Z,50.50
2022-11-22T16:40:56.327Z,50.50
2022-11-22T16:43:22.784Z,50.50
2022-11-22T16:45:49.246Z,50.40
2022-11-22T16:48:30.910Z,50.50
2022-11-22T16:50:58.623Z,50.50
2022-11-22T16:56:05.453Z,50.30
2022-11-22T16:58:31.916Z,50.40
2022-11-22T17:00:58.443Z,50.30
2022-11-22T17:03:24.928Z,50.50
2022-11-22T17:05:51.438Z,50.40
2022-11-22T17:08:17.900Z,50.50
2022-11-22T17:10:44.410Z,50.50
2022-11-22T17:13:10.888Z,50.60
2022-11-22T17:15:37.334Z,50.60
2022-11-22T17:18:03.806Z,50.60
2022-11-22T17:20:30.467Z,50.60
2022-11-22T17:22:56.939Z,50.60
2022-11-22T17:25:23.417Z,50.70
2022-11-22T17:27:53.976Z,50.90
2022-11-22T17:30:20.718Z,50.90
2022-11-22T17:32:47.215Z,51.10
2022-11-22T17:35:13.727Z,51.10
2022-11-22T17:37:40.178Z,51.10
2022-11-22T17:40:06.673Z,51.10
2022-11-22T17:42:38.079Z,51.20
2022-11-22T17:45:07.368Z,51.20
2022-11-22T17:47:33.836Z,51.10
2022-11-22T17:50:00.321Z,51.10
2022-11-22T17:52:26.804Z,51.10
2022-11-22T17:54:53.283Z,51.10
2022-11-22T17:57:19.726Z,51.20
2022-11-22T17:59:46.163Z,51.20
2022-11-22T18:02:12.633Z,51.20
2022-11-22T18:04:39.101Z,51.40
2022-11-22T18:07:05.594Z,51.30
2022-11-22T18:09:32.487Z,51.40
2022-11-22T18:11:59.200Z,51.40
2022-11-22T18:14:25.651Z,51.40
2022-11-22T18:16:52.114Z,51.40
2022-11-22T18:19:18.619Z,51.40
2022-11-22T18:21:45.072Z,51.60
2022-11-22T18:24:11.520Z,51.50
2022-11-22T18:26:40.021Z,51.60
2022-11-22T18:31:54.447Z,51.70
2022-11-22T18:34:20.987Z,51.60
2022-11-22T18:36:57.594Z,51.60
2022-11-22T18:39:27.154Z,51.70
2022-11-22T18:41:53.632Z,51.70
2022-11-22T18:44:20.096Z,51.70
2022-11-22T18:46:46.578Z,51.80
2022-11-22T18:49:13.036Z,51.80
2022-11-22T18:51:39.517Z,52.00
2022-11-22T18:54:05.988Z,52.00
2022-11-22T18:56:32.477Z,52.10
2022-11-22T18:58:58.933Z,52.10
2022-11-22T19:01:25.425Z,52.10
2022-11-22T19:03:53.412Z,52.20
2022-11-22T19:06:19.876Z,52.20
2022-11-22T19:08:46.337Z,52.40
2022-11-22T19:11:12.813Z,52.30
2022-11-22T19:13:39.292Z,52.40
2022-11-22T19:16:05.753Z,52.30
2022-11-22T19:18:35.689Z,52.40
2022-11-22T19:21:06.053Z,52.70
2022-11-22T19:23:32.524Z,52.70
2022-11-22T19:25:59.007Z,52.70
2022-11-22T19:28:25.480Z,52.60
2022-11-22T19:30:51.914Z,52.60
2022-11-22T19:33:18.403Z,52.60
2022-11-22T19:35:47.469Z,52.60
2022-11-22T19:38:13.969Z,52.80
2022-11-22T19:40:40.438Z,52.90
2022-11-22T19:43:06.897Z,53.00
2022-11-22T19:45:33.375Z,53.00
2022-11-22T19:47:59.845Z,53.00
2022-11-22T19:50:26.309Z,53.10
2022-11-22T19:52:52.783Z,53.30
2022-11-22T19:55:19.251Z,53.20
2022-11-22T19:57:45.831Z,53.30
2022-11-22T20:00:12.303Z,53.40
2022-11-22T20:02:38.754Z,53.30
2022-11-22T20:05:05.204Z,53.30
2022-11-22T20:07:31.698Z,53.50
2022-11-22T20:09:58.226Z,53.70
2022-11-22T20:12:24.704Z,53.90
2022-11-22T20:14:51.191Z,53.80
2022-11-22T20:17:17.667Z,53.60
2022-11-22T20:19:44.157Z,53.80
2022-11-22T20:22:10.617Z,53.60
2022-11-22T20:24:37.090Z,53.60
2022-11-22T20:27:03.596Z,53.50
2022-11-22T20:29:30.071Z,53.70
2022-11-22T20:31:56.516Z,53.70
2022-11-22T20:34:22.961Z,53.70
2022-11-22T20:36:49.432Z,53.70
2022-11-22T20:39:15.889Z,53.70
2022-11-22T20:41:42.367Z,53.70
2022-11-22T20:44:08.839Z,53.70
2022-11-22T20:46:35.288Z,53.80
2022-11-22T20:49:01.763Z,53.80
2022-11-22T20:51:28.217Z,53.80
2022-11-22T20:53:54.696Z,53.80
2022-11-22T20:56:23.934Z,53.90
2022-11-22T20:58:53.677Z,53.90
2022-11-22T21:01:20.192Z,53.90
2022-11-22T21:03:46.733Z,54.00
2022-11-22T21:06:13.208Z,54.00
2022-11-22T21:08:39.679Z,54.10
2022-11-22T21:11:06.148Z,54.00
2022-11-22T21:13:32.616Z,54.10
2022-11-22T21:15:59.094Z,54.20
2022-11-22T21:18:26.026Z,54.00
2022-11-22T21:20:52.710Z,54.10
2022-11-22T21:23:19.322Z,54.00
2022-11-22T21:25:45.820Z,54.10
2022-11-22T21:28:12.280Z,54.10
2022-11-22T21:30:38.753Z,54.00
2022-11-22T21:33:05.241Z,54.20
2022-11-22T21:35:31.709Z,54.20
2022-11-22T21:37:58.184Z,54.30
2022-11-22T21:40:24.694Z,54.30
2022-11-22T21:42:51.150Z,54.30
2022-11-22T21:45:17.634Z,54.10
2022-11-22T21:47:47.299Z,54.10
2022-11-22T21:50:13.766Z,54.20
2022-11-22T21:52:40.251Z,54.00
2022-11-22T21:55:06.706Z,54.20
2022-11-22T21:57:33.174Z,54.20
2022-11-22T21:59:59.668Z,54.30
2022-11-22T22:02:26.218Z,54.20
2022-11-22T22:04:52.703Z,54.20
2022-11-22T22:07:37.038Z,54.30
2022-11-22T22:10:05.642Z,54.20
2022-11-22T22:12:32.126Z,54.30
2022-11-22T22:14:58.595Z,54.30
2022-11-22T22:17:25.068Z,54.40
2022-11-22T22:19:51.520Z,54.30
2022-11-22T22:22:17.994Z,54.30
2022-11-22T22:24:44.473Z,54.40
2022-11-22T22:27:10.926Z,54.50
2022-11-22T22:29:37.409Z,54.60
2022-11-22T22:32:09.058Z,54.50
2022-11-22T22:34:36.953Z,54.60
2022-11-22T22:39:43.745Z,54.50
2022-11-22T22:42:10.207Z,54.50
2022-11-22T22:44:36.679Z,54.40
2022-11-22T22:47:03.149Z,54.50
2022-11-22T22:49:30.134Z,54.50
2022-11-22T22:51:56.729Z,54.50
2022-11-22T22:54:23.231Z,54.60
2022-11-22T22:56:49.705Z,54.60
2022-11-22T22:59:16.164Z,54.70
2022-11-22T23:01:42.621Z,54.80
2022-11-22T23:04:09.092Z,54.80
2022-11-22T23:06:35.546Z,54.80
2022-11-22T23:09:01.997Z,54.50
2022-11-22T23:11:28.463Z,54.90
2022-11-22T23:13:54.937Z,54.90
2022-11-22T23:16:21.395Z,55.10
2022-11-22T23:18:47.840Z,54.90
2022-11-22T23:21:14.325Z,55.00
2022-11-22T23:23:40.800Z,54.90
2022-11-22T23:26:07.260Z,55.10
2022-11-22T23:28:33.741Z,55.00
2022-11-22T23:31:00.198Z,55.10
2022-11-22T23:33:26.654Z,55.00
2022-11-22T23:35:53.120Z,55.10
2022-11-22T23:38:19.574Z,54.90
2022-11-22T23:40:46.052Z,54.90
2022-11-22T23:43:12.522Z,55.20
2022-11-22T23:45:38.999Z,55.00
2022-11-22T23:48:05.448Z,55.10
2022-11-22T23:50:37.041Z,55.30
2022-11-22T23:53:03.854Z,55.10
2022-11-22T23:55:30.320Z,55.10
2022-11-22T23:57:56.801Z,55.20
